Skip Navigation Links Skip Navigation Links

Current Weather

Sheldon Muni, Sheldon, Iowa

For information only: do not use for flight planning or navigation.
Latest weather
Observation time Monday, October 18, 2021 3:35 PM CDT
Local time Monday, October 18, 2021 4:02 PM CDT
Flight conditions Visual Meteorological Conditions
Winds
Wind direction South (190°)
Wind speed 16 mph
Wind gusting to 28 mph
Visibility 10 mi.
Sky condition
Ceiling unlimited
Sky clear
Temperature 77°F
Dewpoint 32°F
Altimeter 29.87 in.Hg
Derived measurements
Relative humidity 19%
Heat index 77°F
Density altitude 2732 ft.
Remarks
Fully automated report.
Automated weather observing station with precipitation discriminator.
METAR KSHL 182035Z AUTO 19014G24KT 10SM CLR 25/M00 A2987 RMK AO2

Settings

Location code

InnerDrive.Weather 4.0.6770.0 Release CLR 4.0.30319.42000
Copyright ©2018 Inner Drive Technology. All rights reserved. Portions Copyright ©1986-2018 David Braverman.

Find weather

Site navigation


Skip Navigation Links

Place info

Page info

PayPal - The safer, easier way to pay online!

Return home.

Copyright ©2021 Inner Drive Technology. Purveyors of fine, hand-crafted computer software. Page printed 2021-10-18T21:02:30 UTC.